sensor_id;sensor_type;location;lat;lon;timestamp;pressure;altitude;pressure_sealevel;temperature;humidity
32933;BME280;19444;50.518;10.870;2023-02-17T00:00:54;97179.88;;;1.54;100.00
32933;BME280;19444;50.518;10.870;2023-02-17T00:03:51;97173.81;;;1.65;100.00
32933;BME280;19444;50.518;10.870;2023-02-17T00:06:48;97173.81;;;1.65;100.00
32933;BME280;19444;50.518;10.870;2023-02-17T00:09:45;97158.16;;;1.64;100.00
32933;BME280;19444;50.518;10.870;2023-02-17T00:12:42;97155.91;;;1.56;100.00
32933;BME280;19444;50.518;10.870;2023-02-17T00:15:39;97157.03;;;1.60;100.00
32933;BME280;19444;50.518;10.870;2023-02-17T00:18:36;97149.66;;;1.62;100.00
32933;BME280;19444;50.518;10.870;2023-02-17T00:21:33;97154.25;;;1.66;100.00
32933;BME280;19444;50.518;10.870;2023-02-17T00:24:31;97153.47;;;1.66;100.00
32933;BME280;19444;50.518;10.870;2023-02-17T00:27:28;97154.75;;;1.52;100.00
32933;BME280;19444;50.518;10.870;2023-02-17T00:30:25;97157.59;;;1.62;100.00
32933;BME280;19444;50.518;10.870;2023-02-17T00:33:22;97156.66;;;1.68;100.00
32933;BME280;19444;50.518;10.870;2023-02-17T00:36:19;97146.16;;;1.56;100.00
32933;BME280;19444;50.518;10.870;2023-02-17T00:39:17;97154.94;;;1.62;100.00
32933;BME280;19444;50.518;10.870;2023-02-17T00:42:14;97147.59;;;1.64;100.00
32933;BME280;19444;50.518;10.870;2023-02-17T00:45:10;97149.09;;;1.60;100.00
32933;BME280;19444;50.518;10.870;2023-02-17T00:48:07;97148.88;;;1.61;100.00
32933;BME280;19444;50.518;10.870;2023-02-17T00:51:05;97157.84;;;1.60;100.00
32933;BME280;19444;50.518;10.870;2023-02-17T00:54:02;97152.28;;;1.74;100.00
32933;BME280;19444;50.518;10.870;2023-02-17T00:56:58;97154.72;;;1.63;100.00
32933;BME280;19444;50.518;10.870;2023-02-17T00:59:55;97146.78;;;1.63;100.00
32933;BME280;19444;50.518;10.870;2023-02-17T01:02:52;97143.78;;;1.71;100.00
32933;BME280;19444;50.518;10.870;2023-02-17T01:05:49;97144.44;;;1.79;100.00
32933;BME280;19444;50.518;10.870;2023-02-17T01:08:46;97143.09;;;1.76;100.00
32933;BME280;19444;50.518;10.870;2023-02-17T01:11:43;97137.56;;;1.78;100.00
32933;BME280;19444;50.518;10.870;2023-02-17T01:14:40;97122.09;;;1.69;100.00
32933;BME280;19444;50.518;10.870;2023-02-17T01:17:37;97113.88;;;1.83;100.00
32933;BME280;19444;50.518;10.870;2023-02-17T01:20:38;97115.38;;;1.79;100.00
32933;BME280;19444;50.518;10.870;2023-02-17T01:23:35;97096.19;;;1.83;100.00
32933;BME280;19444;50.518;10.870;2023-02-17T01:26:34;97082.06;;;1.78;100.00
32933;BME280;19444;50.518;10.870;2023-02-17T01:29:31;97086.81;;;1.76;100.00
32933;BME280;19444;50.518;10.870;2023-02-17T01:32:28;97091.13;;;1.82;100.00
32933;BME280;19444;50.518;10.870;2023-02-17T01:35:26;97097.78;;;1.84;100.00
32933;BME280;19444;50.518;10.870;2023-02-17T01:38:23;97080.13;;;1.73;100.00
32933;BME280;19444;50.518;10.870;2023-02-17T01:41:23;97075.94;;;1.89;100.00
32933;BME280;19444;50.518;10.870;2023-02-17T01:44:24;97075.13;;;1.88;100.00
32933;BME280;19444;50.518;10.870;2023-02-17T01:47:21;97079.78;;;1.98;100.00
32933;BME280;19444;50.518;10.870;2023-02-17T01:50:23;97071.31;;;1.96;100.00
32933;BME280;19444;50.518;10.870;2023-02-17T01:53:36;97073.38;;;1.94;100.00
32933;BME280;19444;50.518;10.870;2023-02-17T01:56:38;97055.44;;;1.96;100.00
32933;BME280;19444;50.518;10.870;2023-02-17T01:59:36;97049.00;;;1.75;100.00
32933;BME280;19444;50.518;10.870;2023-02-17T02:02:33;97044.78;;;1.74;100.00
32933;BME280;19444;50.518;10.870;2023-02-17T02:05:30;97074.72;;;1.80;100.00
32933;BME280;19444;50.518;10.870;2023-02-17T02:08:29;97064.47;;;1.83;100.00
32933;BME280;19444;50.518;10.870;2023-02-17T02:11:31;97059.69;;;1.97;100.00
32933;BME280;19444;50.518;10.870;2023-02-17T02:14:28;97058.50;;;2.05;100.00
32933;BME280;19444;50.518;10.870;2023-02-17T02:32:31;97048.63;;;2.17;100.00
32933;BME280;19444;50.518;10.870;2023-02-17T02:39:03;97036.41;;;2.11;100.00
32933;BME280;19444;50.518;10.870;2023-02-17T02:42:07;97044.63;;;2.14;100.00
32933;BME280;19444;50.518;10.870;2023-02-17T02:45:08;97042.41;;;2.23;100.00
32933;BME280;19444;50.518;10.870;2023-02-17T02:48:05;97044.00;;;2.24;100.00
32933;BME280;19444;50.518;10.870;2023-02-17T02:55:14;97029.72;;;2.25;100.00
32933;BME280;19444;50.518;10.870;2023-02-17T02:58:27;97033.13;;;2.20;100.00
32933;BME280;19444;50.518;10.870;2023-02-17T03:05:23;97024.84;;;2.17;100.00
32933;BME280;19444;50.518;10.870;2023-02-17T03:08:47;97021.63;;;2.32;100.00
32933;BME280;19444;50.518;10.870;2023-02-17T03:11:46;97017.84;;;2.44;100.00
32933;BME280;19444;50.518;10.870;2023-02-17T03:14:47;97003.56;;;2.45;100.00
32933;BME280;19444;50.518;10.870;2023-02-17T03:17:45;97003.19;;;2.37;100.00
32933;BME280;19444;50.518;10.870;2023-02-17T03:20:54;97010.41;;;2.41;100.00
32933;BME280;19444;50.518;10.870;2023-02-17T03:23:52;97005.91;;;2.42;100.00
32933;BME280;19444;50.518;10.870;2023-02-17T03:26:49;97010.81;;;2.50;100.00
32933;BME280;19444;50.518;10.870;2023-02-17T03:29:46;97001.81;;;2.51;100.00
32933;BME280;19444;50.518;10.870;2023-02-17T03:32:43;96992.91;;;2.57;100.00
32933;BME280;19444;50.518;10.870;2023-02-17T03:35:40;96993.00;;;2.45;100.00
32933;BME280;19444;50.518;10.870;2023-02-17T03:38:37;96981.84;;;2.60;100.00
32933;BME280;19444;50.518;10.870;2023-02-17T03:41:33;96976.16;;;2.51;100.00
32933;BME280;19444;50.518;10.870;2023-02-17T03:44:30;96978.25;;;2.49;100.00
32933;BME280;19444;50.518;10.870;2023-02-17T03:47:27;96976.53;;;2.38;100.00
32933;BME280;19444;50.518;10.870;2023-02-17T03:50:24;96971.81;;;2.62;100.00
32933;BME280;19444;50.518;10.870;2023-02-17T03:53:21;96965.16;;;2.60;100.00
32933;BME280;19444;50.518;10.870;2023-02-17T03:56:18;96958.22;;;2.75;100.00
32933;BME280;19444;50.518;10.870;2023-02-17T03:59:15;96970.03;;;2.68;100.00
32933;BME280;19444;50.518;10.870;2023-02-17T04:02:12;96971.69;;;2.74;100.00
32933;BME280;19444;50.518;10.870;2023-02-17T04:05:08;96974.94;;;2.59;100.00
32933;BME280;19444;50.518;10.870;2023-02-17T04:08:05;96966.75;;;2.61;100.00
32933;BME280;19444;50.518;10.870;2023-02-17T04:11:05;96972.88;;;3.05;100.00
32933;BME280;19444;50.518;10.870;2023-02-17T04:14:02;96965.44;;;3.29;100.00
32933;BME280;19444;50.518;10.870;2023-02-17T04:16:59;96960.19;;;3.34;100.00
32933;BME280;19444;50.518;10.870;2023-02-17T04:19:56;96953.81;;;3.30;100.00
32933;BME280;19444;50.518;10.870;2023-02-17T04:22:53;96951.50;;;3.38;100.00
32933;BME280;19444;50.518;10.870;2023-02-17T04:25:50;96950.03;;;3.53;100.00
32933;BME280;19444;50.518;10.870;2023-02-17T04:28:47;96947.81;;;3.71;100.00
32933;BME280;19444;50.518;10.870;2023-02-17T04:31:44;96949.72;;;3.76;100.00
32933;BME280;19444;50.518;10.870;2023-02-17T04:34:41;96946.31;;;3.49;100.00
32933;BME280;19444;50.518;10.870;2023-02-17T04:37:37;96945.09;;;3.61;100.00
32933;BME280;19444;50.518;10.870;2023-02-17T04:40:35;96947.63;;;3.78;100.00
32933;BME280;19444;50.518;10.870;2023-02-17T04:43:32;96942.34;;;3.51;100.00
32933;BME280;19444;50.518;10.870;2023-02-17T04:46:29;96946.03;;;3.77;100.00
32933;BME280;19444;50.518;10.870;2023-02-17T04:49:26;96948.81;;;3.97;100.00
32933;BME280;19444;50.518;10.870;2023-02-17T04:52:23;96947.16;;;3.86;100.00
32933;BME280;19444;50.518;10.870;2023-02-17T04:55:20;96945.50;;;3.80;100.00
32933;BME280;19444;50.518;10.870;2023-02-17T04:58:17;96943.84;;;3.69;100.00
32933;BME280;19444;50.518;10.870;2023-02-17T05:01:14;96940.03;;;3.92;100.00
32933;BME280;19444;50.518;10.870;2023-02-17T05:04:11;96946.78;;;4.10;100.00
32933;BME280;19444;50.518;10.870;2023-02-17T05:07:08;96947.63;;;4.15;100.00
32933;BME280;19444;50.518;10.870;2023-02-17T05:10:05;96943.78;;;3.96;100.00
32933;BME280;19444;50.518;10.870;2023-02-17T05:13:02;96946.22;;;4.03;100.00
32933;BME280;19444;50.518;10.870;2023-02-17T05:15:59;96940.09;;;4.02;100.00
32933;BME280;19444;50.518;10.870;2023-02-17T05:18:56;96940.41;;;4.11;100.00
32933;BME280;19444;50.518;10.870;2023-02-17T05:21:53;96943.13;;;4.16;100.00
32933;BME280;19444;50.518;10.870;2023-02-17T05:24:50;96931.06;;;3.98;100.00
32933;BME280;19444;50.518;10.870;2023-02-17T05:27:47;96934.56;;;4.04;100.00
32933;BME280;19444;50.518;10.870;2023-02-17T05:30:46;96936.97;;;4.10;100.00
32933;BME280;19444;50.518;10.870;2023-02-17T05:33:43;96926.63;;;4.09;100.00
32933;BME280;19444;50.518;10.870;2023-02-17T05:36:40;96931.25;;;4.23;100.00
32933;BME280;19444;50.518;10.870;2023-02-17T05:39:37;96921.91;;;4.16;100.00
32933;BME280;19444;50.518;10.870;2023-02-17T05:42:34;96914.00;;;4.26;100.00
32933;BME280;19444;50.518;10.870;2023-02-17T05:45:31;96914.28;;;4.29;100.00
32933;BME280;19444;50.518;10.870;2023-02-17T05:48:28;96909.78;;;4.30;100.00
32933;BME280;19444;50.518;10.870;2023-02-17T05:51:25;96904.25;;;4.37;100.00
32933;BME280;19444;50.518;10.870;2023-02-17T05:54:21;96902.41;;;4.42;100.00
32933;BME280;19444;50.518;10.870;2023-02-17T05:57:18;96892.75;;;4.21;100.00
32933;BME280;19444;50.518;10.870;2023-02-17T06:00:16;96892.06;;;4.41;100.00
32933;BME280;19444;50.518;10.870;2023-02-17T06:03:13;96905.88;;;4.48;100.00
32933;BME280;19444;50.518;10.870;2023-02-17T06:06:10;96886.25;;;4.44;100.00
32933;BME280;19444;50.518;10.870;2023-02-17T06:09:07;96888.66;;;4.50;100.00
32933;BME280;19444;50.518;10.870;2023-02-17T06:12:04;96898.88;;;4.26;100.00
32933;BME280;19444;50.518;10.870;2023-02-17T06:15:01;96889.44;;;4.46;100.00
32933;BME280;19444;50.518;10.870;2023-02-17T06:17:58;96910.91;;;4.44;100.00
32933;BME280;19444;50.518;10.870;2023-02-17T06:20:56;96898.22;;;4.56;100.00
32933;BME280;19444;50.518;10.870;2023-02-17T06:23:54;96913.94;;;4.63;100.00
32933;BME280;19444;50.518;10.870;2023-02-17T06:26:50;96911.50;;;4.56;100.00
32933;BME280;19444;50.518;10.870;2023-02-17T06:29:47;96917.97;;;4.76;100.00
32933;BME280;19444;50.518;10.870;2023-02-17T06:32:44;96918.16;;;4.64;100.00
32933;BME280;19444;50.518;10.870;2023-02-17T06:35:41;96899.13;;;4.82;100.00
32933;BME280;19444;50.518;10.870;2023-02-17T06:38:40;96900.69;;;4.73;100.00
32933;BME280;19444;50.518;10.870;2023-02-17T06:41:37;96897.28;;;4.88;100.00
32933;BME280;19444;50.518;10.870;2023-02-17T06:44:34;96901.44;;;4.64;100.00
32933;BME280;19444;50.518;10.870;2023-02-17T06:47:32;96897.78;;;4.75;100.00
32933;BME280;19444;50.518;10.870;2023-02-17T06:50:30;96882.09;;;4.68;100.00
32933;BME280;19444;50.518;10.870;2023-02-17T06:53:27;96881.13;;;5.00;100.00
32933;BME280;19444;50.518;10.870;2023-02-17T06:56:24;96884.28;;;4.92;100.00
32933;BME280;19444;50.518;10.870;2023-02-17T06:59:20;96883.22;;;4.88;100.00
32933;BME280;19444;50.518;10.870;2023-02-17T07:02:17;96879.97;;;4.75;100.00
32933;BME280;19444;50.518;10.870;2023-02-17T07:05:15;96888.81;;;4.96;100.00
32933;BME280;19444;50.518;10.870;2023-02-17T07:08:12;96900.94;;;4.72;100.00
32933;BME280;19444;50.518;10.870;2023-02-17T07:11:12;96914.88;;;5.09;100.00
32933;BME280;19444;50.518;10.870;2023-02-17T07:14:09;96914.28;;;4.92;100.00
32933;BME280;19444;50.518;10.870;2023-02-17T07:17:06;96905.31;;;5.03;100.00
32933;BME280;19444;50.518;10.870;2023-02-17T07:20:04;96910.03;;;4.86;100.00
32933;BME280;19444;50.518;10.870;2023-02-17T07:23:01;96914.91;;;5.14;100.00
32933;BME280;19444;50.518;10.870;2023-02-17T07:26:06;96917.81;;;5.08;100.00
32933;BME280;19444;50.518;10.870;2023-02-17T07:29:05;96914.38;;;5.12;100.00
32933;BME280;19444;50.518;10.870;2023-02-17T07:32:03;96914.13;;;5.34;100.00
32933;BME280;19444;50.518;10.870;2023-02-17T07:35:00;96925.03;;;5.33;100.00
32933;BME280;19444;50.518;10.870;2023-02-17T07:37:57;96910.91;;;5.17;100.00
32933;BME280;19444;50.518;10.870;2023-02-17T07:40:54;96917.59;;;5.25;100.00
32933;BME280;19444;50.518;10.870;2023-02-17T07:43:56;96915.72;;;5.25;100.00
32933;BME280;19444;50.518;10.870;2023-02-17T07:46:53;96933.28;;;5.31;100.00
32933;BME280;19444;50.518;10.870;2023-02-17T07:49:50;96933.00;;;5.23;100.00
32933;BME280;19444;50.518;10.870;2023-02-17T07:52:47;96930.63;;;5.57;100.00
32933;BME280;19444;50.518;10.870;2023-02-17T07:55:45;96922.94;;;5.50;100.00
32933;BME280;19444;50.518;10.870;2023-02-17T07:58:44;96923.41;;;5.27;100.00
32933;BME280;19444;50.518;10.870;2023-02-17T08:01:41;96918.13;;;5.37;100.00
32933;BME280;19444;50.518;10.870;2023-02-17T08:04:38;96921.84;;;5.46;100.00
32933;BME280;19444;50.518;10.870;2023-02-17T08:07:35;96916.81;;;5.39;100.00
32933;BME280;19444;50.518;10.870;2023-02-17T08:10:32;96914.97;;;5.50;100.00
32933;BME280;19444;50.518;10.870;2023-02-17T08:13:47;96924.03;;;5.69;100.00
32933;BME280;19444;50.518;10.870;2023-02-17T08:16:44;96932.00;;;5.59;100.00
32933;BME280;19444;50.518;10.870;2023-02-17T08:19:41;96929.56;;;5.42;100.00
32933;BME280;19444;50.518;10.870;2023-02-17T08:22:44;96921.91;;;5.77;100.00
32933;BME280;19444;50.518;10.870;2023-02-17T08:25:41;96919.47;;;5.65;100.00
32933;BME280;19444;50.518;10.870;2023-02-17T08:28:38;96915.50;;;5.72;100.00
32933;BME280;19444;50.518;10.870;2023-02-17T08:31:36;96917.63;;;5.81;100.00
32933;BME280;19444;50.518;10.870;2023-02-17T08:34:33;96913.91;;;5.82;100.00
32933;BME280;19444;50.518;10.870;2023-02-17T08:37:31;96924.81;;;5.80;100.00
32933;BME280;19444;50.518;10.870;2023-02-17T08:40:28;96912.03;;;5.62;100.00
32933;BME280;19444;50.518;10.870;2023-02-17T08:43:25;96912.31;;;5.60;100.00
32933;BME280;19444;50.518;10.870;2023-02-17T08:46:22;96912.84;;;5.78;100.00
32933;BME280;19444;50.518;10.870;2023-02-17T08:49:24;96921.88;;;5.71;100.00
32933;BME280;19444;50.518;10.870;2023-02-17T08:52:21;96921.09;;;5.91;100.00
32933;BME280;19444;50.518;10.870;2023-02-17T08:55:18;96926.13;;;5.83;100.00
32933;BME280;19444;50.518;10.870;2023-02-17T08:58:16;96924.03;;;6.15;100.00
32933;BME280;19444;50.518;10.870;2023-02-17T09:01:13;96926.16;;;6.03;100.00
32933;BME280;19444;50.518;10.870;2023-02-17T09:04:12;96928.53;;;6.20;100.00
32933;BME280;19444;50.518;10.870;2023-02-17T09:07:13;96914.44;;;6.14;100.00
32933;BME280;19444;50.518;10.870;2023-02-17T09:10:13;96913.91;;;6.12;100.00
32933;BME280;19444;50.518;10.870;2023-02-17T09:13:10;96927.22;;;6.22;100.00
32933;BME280;19444;50.518;10.870;2023-02-17T09:16:07;96926.66;;;6.20;100.00
32933;BME280;19444;50.518;10.870;2023-02-17T09:19:04;96924.50;;;6.38;100.00
32933;BME280;19444;50.518;10.870;2023-02-17T09:22:01;96931.97;;;6.41;100.00
32933;BME280;19444;50.518;10.870;2023-02-17T09:24:58;96928.25;;;6.37;100.00
32933;BME280;19444;50.518;10.870;2023-02-17T09:27:55;96921.56;;;6.44;100.00
32933;BME280;19444;50.518;10.870;2023-02-17T09:30:55;96919.47;;;6.31;100.00
32933;BME280;19444;50.518;10.870;2023-02-17T09:33:53;96928.50;;;6.40;100.00
32933;BME280;19444;50.518;10.870;2023-02-17T09:36:50;96924.25;;;6.34;100.00
32933;BME280;19444;50.518;10.870;2023-02-17T09:39:49;96917.03;;;6.40;100.00
32933;BME280;19444;50.518;10.870;2023-02-17T09:42:46;96918.09;;;6.54;100.00
32933;BME280;19444;50.518;10.870;2023-02-17T09:45:50;96918.94;;;6.34;100.00
32933;BME280;19444;50.518;10.870;2023-02-17T09:48:48;96925.53;;;6.47;100.00
32933;BME280;19444;50.518;10.870;2023-02-17T09:52:04;96919.69;;;6.45;100.00
32933;BME280;19444;50.518;10.870;2023-02-17T09:55:16;96933.31;;;6.33;100.00
32933;BME280;19444;50.518;10.870;2023-02-17T09:58:46;96931.69;;;6.42;100.00
32933;BME280;19444;50.518;10.870;2023-02-17T10:01:45;96929.28;;;6.51;100.00
32933;BME280;19444;50.518;10.870;2023-02-17T10:04:47;96923.66;;;6.57;100.00
32933;BME280;19444;50.518;10.870;2023-02-17T10:07:56;96921.25;;;6.61;100.00
32933;BME280;19444;50.518;10.870;2023-02-17T10:11:10;96926.53;;;6.71;100.00
32933;BME280;19444;50.518;10.870;2023-02-17T10:17:40;96933.97;;;6.79;100.00
32933;BME280;19444;50.518;10.870;2023-02-17T10:21:07;96933.75;;;6.66;100.00
32933;BME280;19444;50.518;10.870;2023-02-17T10:24:09;96930.53;;;6.74;100.00
32933;BME280;19444;50.518;10.870;2023-02-17T10:31:00;96936.97;;;6.57;100.00
32933;BME280;19444;50.518;10.870;2023-02-17T10:34:33;96943.66;;;6.45;100.00
32933;BME280;19444;50.518;10.870;2023-02-17T10:37:53;96957.22;;;6.53;100.00
32933;BME280;19444;50.518;10.870;2023-02-17T10:40:53;96959.63;;;6.55;100.00
32933;BME280;19444;50.518;10.870;2023-02-17T10:43:52;96951.66;;;6.45;100.00
32933;BME280;19444;50.518;10.870;2023-02-17T10:46:50;96950.00;;;6.69;100.00
32933;BME280;19444;50.518;10.870;2023-02-17T10:49:53;96942.03;;;6.59;100.00
32933;BME280;19444;50.518;10.870;2023-02-17T10:52:52;96935.09;;;6.68;100.00
32933;BME280;19444;50.518;10.870;2023-02-17T10:56:02;96934.06;;;6.54;100.00
32933;BME280;19444;50.518;10.870;2023-02-17T10:59:12;96923.09;;;6.71;100.00
32933;BME280;19444;50.518;10.870;2023-02-17T11:02:31;96918.56;;;6.71;100.00
32933;BME280;19444;50.518;10.870;2023-02-17T11:05:33;96925.44;;;6.88;100.00
32933;BME280;19444;50.518;10.870;2023-02-17T11:08:34;96917.72;;;6.86;100.00
32933;BME280;19444;50.518;10.870;2023-02-17T11:11:35;96915.66;;;6.57;100.00
32933;BME280;19444;50.518;10.870;2023-02-17T11:14:32;96912.41;;;6.76;100.00
32933;BME280;19444;50.518;10.870;2023-02-17T11:17:38;96917.63;;;7.01;100.00
32933;BME280;19444;50.518;10.870;2023-02-17T11:20:37;96913.16;;;6.92;100.00
32933;BME280;19444;50.518;10.870;2023-02-17T11:23:39;96913.94;;;6.97;100.00
32933;BME280;19444;50.518;10.870;2023-02-17T11:26:42;96901.13;;;6.94;100.00
32933;BME280;19444;50.518;10.870;2023-02-17T11:29:39;96901.22;;;6.74;100.00
32933;BME280;19444;50.518;10.870;2023-02-17T11:32:35;96889.84;;;7.12;100.00
32933;BME280;19444;50.518;10.870;2023-02-17T11:38:43;96897.59;;;7.09;100.00
32933;BME280;19444;50.518;10.870;2023-02-17T11:41:40;96894.91;;;7.14;100.00
32933;BME280;19444;50.518;10.870;2023-02-17T11:44:37;96895.22;;;7.07;100.00
32933;BME280;19444;50.518;10.870;2023-02-17T11:47:50;96883.88;;;7.31;100.00
32933;BME280;19444;50.518;10.870;2023-02-17T11:57:55;96897.66;;;7.43;100.00
32933;BME280;19444;50.518;10.870;2023-02-17T12:05:14;96891.25;;;7.44;100.00
32933;BME280;19444;50.518;10.870;2023-02-17T12:09:02;96897.19;;;7.31;100.00
32933;BME280;19444;50.518;10.870;2023-02-17T12:18:52;96885.94;;;7.44;100.00
32933;BME280;19444;50.518;10.870;2023-02-17T12:22:08;96886.81;;;7.29;100.00
32933;BME280;19444;50.518;10.870;2023-02-17T12:25:28;96877.34;;;7.52;100.00
32933;BME280;19444;50.518;10.870;2023-02-17T12:29:10;96860.41;;;7.33;100.00
32933;BME280;19444;50.518;10.870;2023-02-17T12:36:20;96842.63;;;7.57;100.00
32933;BME280;19444;50.518;10.870;2023-02-17T12:42:40;96810.06;;;7.60;100.00
32933;BME280;19444;50.518;10.870;2023-02-17T12:45:43;96796.16;;;7.34;100.00
32933;BME280;19444;50.518;10.870;2023-02-17T12:48:56;96805.22;;;7.33;100.00
32933;BME280;19444;50.518;10.870;2023-02-17T12:52:03;96802.47;;;7.44;100.00
32933;BME280;19444;50.518;10.870;2023-02-17T12:55:17;96801.22;;;7.65;100.00
32933;BME280;19444;50.518;10.870;2023-02-17T12:58:25;96794.09;;;7.55;100.00
32933;BME280;19444;50.518;10.870;2023-02-17T13:01:27;96807.84;;;7.67;100.00
32933;BME280;19444;50.518;10.870;2023-02-17T13:04:27;96814.31;;;7.61;100.00
32933;BME280;19444;50.518;10.870;2023-02-17T13:07:43;96806.97;;;7.77;100.00
32933;BME280;19444;50.518;10.870;2023-02-17T13:10:41;96793.88;;;7.81;100.00
32933;BME280;19444;50.518;10.870;2023-02-17T13:13:38;96783.38;;;7.89;100.00
32933;BME280;19444;50.518;10.870;2023-02-17T13:16:43;96778.28;;;7.64;100.00
32933;BME280;19444;50.518;10.870;2023-02-17T13:19:41;96768.44;;;7.88;100.00
32933;BME280;19444;50.518;10.870;2023-02-17T13:22:41;96767.22;;;7.76;100.00
32933;BME280;19444;50.518;10.870;2023-02-17T13:25:39;96781.72;;;7.69;100.00
32933;BME280;19444;50.518;10.870;2023-02-17T13:28:39;96772.91;;;7.93;100.00
32933;BME280;19444;50.518;10.870;2023-02-17T13:31:54;96775.78;;;7.78;100.00
32933;BME280;19444;50.518;10.870;2023-02-17T13:38:02;96754.84;;;7.85;100.00
32933;BME280;19444;50.518;10.870;2023-02-17T13:41:04;96738.06;;;7.84;100.00
32933;BME280;19444;50.518;10.870;2023-02-17T13:44:25;96735.91;;;8.10;100.00
32933;BME280;19444;50.518;10.870;2023-02-17T13:47:34;96741.81;;;7.83;100.00
32933;BME280;19444;50.518;10.870;2023-02-17T13:50:46;96747.16;;;7.83;100.00
32933;BME280;19444;50.518;10.870;2023-02-17T13:53:48;96750.94;;;8.01;100.00
32933;BME280;19444;50.518;10.870;2023-02-17T13:56:51;96731.84;;;8.37;100.00
32933;BME280;19444;50.518;10.870;2023-02-17T13:59:48;96730.66;;;8.24;100.00
32933;BME280;19444;50.518;10.870;2023-02-17T14:02:51;96723.78;;;8.18;100.00
32933;BME280;19444;50.518;10.870;2023-02-17T14:06:00;96726.25;;;8.14;100.00
32933;BME280;19444;50.518;10.870;2023-02-17T14:08:57;96726.91;;;8.25;100.00
32933;BME280;19444;50.518;10.870;2023-02-17T14:11:55;96718.59;;;8.08;100.00
32933;BME280;19444;50.518;10.870;2023-02-17T14:14:53;96720.50;;;8.26;100.00
32933;BME280;19444;50.518;10.870;2023-02-17T14:17:50;96715.66;;;8.28;100.00
32933;BME280;19444;50.518;10.870;2023-02-17T14:20:47;96722.19;;;8.41;100.00
32933;BME280;19444;50.518;10.870;2023-02-17T14:23:57;96721.00;;;8.28;100.00
32933;BME280;19444;50.518;10.870;2023-02-17T14:27:04;96735.47;;;8.46;100.00
32933;BME280;19444;50.518;10.870;2023-02-17T14:30:04;96732.06;;;8.40;100.00
32933;BME280;19444;50.518;10.870;2023-02-17T14:33:07;96733.31;;;8.48;100.00
32933;BME280;19444;50.518;10.870;2023-02-17T14:36:26;96731.03;;;8.60;100.00
32933;BME280;19444;50.518;10.870;2023-02-17T14:39:24;96727.56;;;8.60;100.00
32933;BME280;19444;50.518;10.870;2023-02-17T14:42:20;96732.91;;;8.60;100.00
32933;BME280;19444;50.518;10.870;2023-02-17T14:45:18;96726.75;;;8.78;100.00
32933;BME280;19444;50.518;10.870;2023-02-17T14:48:15;96730.13;;;8.83;100.00
32933;BME280;19444;50.518;10.870;2023-02-17T14:51:16;96727.19;;;8.66;100.00
32933;BME280;19444;50.518;10.870;2023-02-17T14:54:15;96728.56;;;8.82;100.00
32933;BME280;19444;50.518;10.870;2023-02-17T14:57:14;96732.16;;;8.92;100.00
32933;BME280;19444;50.518;10.870;2023-02-17T15:00:13;96722.91;;;8.84;100.00
32933;BME280;19444;50.518;10.870;2023-02-17T15:03:10;96723.84;;;8.74;100.00
32933;BME280;19444;50.518;10.870;2023-02-17T15:06:24;96719.66;;;8.68;100.00
32933;BME280;19444;50.518;10.870;2023-02-17T15:09:29;96727.31;;;8.75;100.00
32933;BME280;19444;50.518;10.870;2023-02-17T15:12:26;96726.81;;;8.73;100.00
32933;BME280;19444;50.518;10.870;2023-02-17T15:15:24;96732.75;;;8.89;100.00
32933;BME280;19444;50.518;10.870;2023-02-17T15:18:20;96741.84;;;8.88;100.00
32933;BME280;19444;50.518;10.870;2023-02-17T15:21:28;96744.38;;;8.79;100.00
32933;BME280;19444;50.518;10.870;2023-02-17T15:24:26;96744.28;;;8.84;100.00
32933;BME280;19444;50.518;10.870;2023-02-17T15:27:29;96739.03;;;8.79;100.00
32933;BME280;19444;50.518;10.870;2023-02-17T15:30:25;96738.81;;;8.75;100.00
32933;BME280;19444;50.518;10.870;2023-02-17T15:33:24;96740.97;;;8.73;100.00
32933;BME280;19444;50.518;10.870;2023-02-17T15:36:21;96743.94;;;8.72;100.00
32933;BME280;19444;50.518;10.870;2023-02-17T15:39:19;96745.06;;;8.84;100.00
32933;BME280;19444;50.518;10.870;2023-02-17T15:42:18;96759.09;;;8.95;100.00
32933;BME280;19444;50.518;10.870;2023-02-17T15:45:17;96745.34;;;9.02;100.00
32933;BME280;19444;50.518;10.870;2023-02-17T15:48:24;96728.88;;;8.95;100.00
32933;BME280;19444;50.518;10.870;2023-02-17T15:51:21;96733.03;;;8.87;100.00
32933;BME280;19444;50.518;10.870;2023-02-17T15:54:20;96721.75;;;8.90;100.00
32933;BME280;19444;50.518;10.870;2023-02-17T15:57:23;96720.22;;;9.03;100.00
32933;BME280;19444;50.518;10.870;2023-02-17T16:00:33;96717.47;;;9.08;100.00
32933;BME280;19444;50.518;10.870;2023-02-17T16:03:30;96735.25;;;8.99;100.00
32933;BME280;19444;50.518;10.870;2023-02-17T16:06:28;96724.69;;;9.07;100.00
32933;BME280;19444;50.518;10.870;2023-02-17T16:09:25;96720.47;;;8.88;100.00
32933;BME280;19444;50.518;10.870;2023-02-17T16:12:21;96720.88;;;8.95;100.00
32933;BME280;19444;50.518;10.870;2023-02-17T16:15:24;96710.94;;;8.81;100.00
32933;BME280;19444;50.518;10.870;2023-02-17T16:18:23;96704.50;;;8.82;100.00
32933;BME280;19444;50.518;10.870;2023-02-17T16:21:20;96700.31;;;8.76;100.00
32933;BME280;19444;50.518;10.870;2023-02-17T16:24:17;96696.63;;;8.91;100.00
32933;BME280;19444;50.518;10.870;2023-02-17T16:27:15;96693.81;;;8.82;100.00
32933;BME280;19444;50.518;10.870;2023-02-17T16:30:32;96695.63;;;8.87;100.00
32933;BME280;19444;50.518;10.870;2023-02-17T16:33:29;96692.72;;;8.83;100.00
32933;BME280;19444;50.518;10.870;2023-02-17T16:36:30;96690.38;;;8.96;100.00
32933;BME280;19444;50.518;10.870;2023-02-17T16:39:28;96694.41;;;8.79;100.00
32933;BME280;19444;50.518;10.870;2023-02-17T16:42:25;96701.75;;;8.88;100.00
32933;BME280;19444;50.518;10.870;2023-02-17T16:45:28;96706.81;;;8.89;100.00
32933;BME280;19444;50.518;10.870;2023-02-17T16:48:29;96710.50;;;8.74;100.00